Portada
METAR-TAF:

METAR-TAF

Aeroports :

Trebisonda, Turquia

latitud: 41-00N, longitud: 039-43E, altitud: 35 m

Observació

L'informe es va fer fa 54 minuts, a les 14:50 UTC
Vent 5 kt del Sud
Temperatura 10°C
Humitat 71%
Pressió 1016 hPa
Visibilitat: 8000 m

METAR: LTCG 101450Z 19005KT 8000 NSC 10/05 Q1016 TEMPO 4000 BR RMK RWY29 17003KT

Hora: 18:44 (15:44 UTC)

Pronòstic

L'informe es va fer fa 5 hores i 4 minuts, a les 10:40 UTC
Pronòstic vàlid del 10 a les 12 UTC al 11 a les 12 UTC
Vent 2 kt amb direcció variable
Visibilitat 10 km o més
sense núvols per sota de 1500 mi sense presència de cumulonimbus.
Temporalment
l' 10 a les 14 UTC al 10 a les 18 UTC
Visibilitat: 4000 m
boirina

TAF: LTCG 101040Z 1012/1112 VRB02KT CAVOK TEMPO 1014/1018 4000 BR

Observacions i pronòstics meteorològics de més de 4000 aeroports (METAR i TAF).

Les estacions disponibles són els punts grocs i vermells al mapa.

Posi el ratolí al punt desitjat per veure el nom de l'estació.

Feu clic per veure les observacions i els pronòstics meteorològics.

Per canviar el mapa: feu clic els botons verds amb una creu de color negre per apropar; al botó verd amb un guió per allunyar la imatge; o en les fletxes verdes per a mapes adjacents.


METAR-TAF: